Time;durP1;ratioP1;P1;durP2;ratioP2;P2;SDS_P1;SDS_P2;PMS_P1;PMS_P2;Temp;Humidity;BMP_temperature;BMP_pressure;BME280_temperature;BME280_humidity;BME280_pressure;Samples;Min_cycle;Max_cycle;Signal;HPM_P1;HPM_P2
2023/03/09 00:02:09;;;;;;;7.25;2.55;;;;;;;;;;5036571;28;20112;-25
2023/03/09 00:04:35;;;;;;;4.15;2.72;;;;;;;;;;5036445;28;20061;-25
2023/03/09 00:07:02;;;;;;;5.95;3.50;;;;;;;;;;5036604;28;20029;-24
2023/03/09 00:09:28;;;;;;;5.93;3.10;;;;;;;;;;5036746;28;20466;-25
2023/03/09 00:11:55;;;;;;;4.18;2.80;;;;;;;;;;5036373;28;20083;-25
2023/03/09 00:14:22;;;;;;;4.95;2.85;;;;;;;;;;5018871;28;20091;-25
2023/03/09 00:16:48;;;;;;;3.80;3.20;;;;;;;;;;5036340;28;20026;-25
2023/03/09 00:19:26;;;;;;;8.80;3.10;;;;;;;;;;5036621;28;20021;-25
2023/03/09 00:21:53;;;;;;;2.55;2.08;;;;;;;;;;5036567;28;20040;-25
2023/03/09 00:24:24;;;;;;;7.13;2.80;;;;;;;;;;5036082;28;20520;-25
2023/03/09 00:26:54;;;;;;;5.55;2.40;;;;;;;;;;5035451;28;20068;-24
2023/03/09 00:29:21;;;;;;;4.47;2.65;;;;;;;;;;5036618;28;20025;-25
2023/03/09 00:31:47;;;;;;;6.05;2.47;;;;;;;;;;5036042;28;20021;-25
2023/03/09 00:34:15;;;;;;;4.45;2.53;;;;;;;;;;5035982;28;20115;-24
2023/03/09 00:36:41;;;;;;;3.33;2.40;;;;;;;;;;5036240;28;20037;-25
2023/03/09 00:39:07;;;;;;;5.35;2.85;;;;;;;;;;5035925;28;20078;-24
2023/03/09 00:41:33;;;;;;;7.43;3.28;;;;;;;;;;5036192;28;20033;-25
2023/03/09 00:44:01;;;;;;;3.35;2.72;;;;;;;;;;5035948;28;20101;-25
2023/03/09 00:46:27;;;;;;;4.82;2.47;;;;;;;;;;5036070;28;20101;-25
2023/03/09 00:48:54;;;;;;;5.57;2.90;;;;;;;;;;5035734;28;20029;-24
2023/03/09 00:51:20;;;;;;;7.70;2.67;;;;;;;;;;5035596;28;20083;-24
2023/03/09 00:53:46;;;;;;;3.90;2.17;;;;;;;;;;5035521;28;20018;-25
2023/03/09 00:56:19;;;;;;;3.33;3.03;;;;;;;;;;5035548;28;20045;-25
2023/03/09 00:58:46;;;;;;;5.75;3.35;;;;;;;;;;5035857;28;20039;-25
2023/03/09 01:01:13;;;;;;;3.45;2.50;;;;;;;;;;5035520;28;20025;-25
2023/03/09 01:03:40;;;;;;;3.20;2.50;;;;;;;;;;5035193;28;20032;-25
2023/03/09 01:06:06;;;;;;;7.22;2.63;;;;;;;;;;5035400;28;20493;-25
2023/03/09 01:08:33;;;;;;;2.92;2.40;;;;;;;;;;5035660;28;20029;-25
2023/03/09 01:10:59;;;;;;;3.25;2.58;;;;;;;;;;5035243;28;20033;-25
2023/03/09 01:13:26;;;;;;;4.70;2.40;;;;;;;;;;5035296;28;20026;-25
2023/03/09 01:15:52;;;;;;;3.28;2.50;;;;;;;;;;5035297;28;20358;-25
2023/03/09 01:18:18;;;;;;;5.97;3.33;;;;;;;;;;5035220;28;20087;-25
2023/03/09 01:20:44;;;;;;;3.35;2.88;;;;;;;;;;5035414;28;20100;-24
2023/03/09 01:23:10;;;;;;;3.03;2.78;;;;;;;;;;5035306;28;20473;-25
2023/03/09 01:25:36;;;;;;;4.60;2.95;;;;;;;;;;5035376;28;20021;-25
2023/03/09 01:28:03;;;;;;;4.15;3.40;;;;;;;;;;5035053;28;20041;-25
2023/03/09 01:30:29;;;;;;;2.60;2.33;;;;;;;;;;5034953;28;20033;-25
2023/03/09 01:32:55;;;;;;;3.72;2.45;;;;;;;;;;5035193;28;20033;-25
2023/03/09 01:35:21;;;;;;;5.75;2.83;;;;;;;;;;5035099;28;20021;-24
2023/03/09 01:37:47;;;;;;;5.18;2.17;;;;;;;;;;5035121;28;20394;-25
2023/03/09 01:40:18;;;;;;;8.73;2.65;;;;;;;;;;5017430;28;20056;-25
2023/03/09 01:42:44;;;;;;;;;;;;;;;;;;5035745;28;20105;-25
2023/03/09 01:45:11;;;;;;;5.25;2.40;;;;;;;;;;5034767;28;19944;-24
2023/03/09 01:47:37;;;;;;;3.78;2.50;;;;;;;;;;5034751;28;20091;-25
2023/03/09 01:50:04;;;;;;;7.15;2.70;;;;;;;;;;5034894;28;20097;-25
2023/03/09 01:52:33;;;;;;;5.93;2.17;;;;;;;;;;5034613;28;20032;-25
2023/03/09 01:55:19;;;;;;;2.55;2.20;;;;;;;;;;5017107;28;20427;-25
2023/03/09 01:58:04;;;;;;;3.92;2.58;;;;;;;;;;5034487;28;20458;-24
2023/03/09 02:00:31;;;;;;;3.65;2.60;;;;;;;;;;5034528;28;20091;-25
2023/03/09 02:03:00;;;;;;;2.53;1.92;;;;;;;;;;5034525;28;20026;-25
2023/03/09 02:05:45;;;;;;;4.10;2.38;;;;;;;;;;5034591;28;20367;-25
2023/03/09 02:08:11;;;;;;;4.78;2.47;;;;;;;;;;5034730;28;20045;-24
2023/03/09 02:10:43;;;;;;;2.88;2.00;;;;;;;;;;5034632;28;20423;-25
2023/03/09 02:13:11;;;;;;;3.42;2.60;;;;;;;;;;5016960;28;20469;-25
2023/03/09 02:15:37;;;;;;;3.47;2.95;;;;;;;;;;5034373;28;20101;-24
2023/03/09 02:18:04;;;;;;;2.75;2.55;;;;;;;;;;5034680;28;20358;-25
2023/03/09 02:20:39;;;;;;;4.53;2.78;;;;;;;;;;5034383;28;20035;-24
2023/03/09 02:23:13;;;;;;;5.75;2.83;;;;;;;;;;5016954;28;20558;-24
2023/03/09 02:25:46;;;;;;;2.35;2.13;;;;;;;;;;5034295;28;20083;-25
2023/03/09 02:28:12;;;;;;;5.65;2.42;;;;;;;;;;5034887;28;20029;-24
2023/03/09 02:30:41;;;;;;;3.38;2.58;;;;;;;;;;5034130;28;20021;-25
2023/03/09 02:33:11;;;;;;;2.65;2.45;;;;;;;;;;5034132;28;20086;-25
2023/03/09 02:35:37;;;;;;;4.50;2.30;;;;;;;;;;5034188;28;20407;-25
2023/03/09 02:38:03;;;;;;;3.35;2.67;;;;;;;;;;5034225;28;20049;-25
2023/03/09 02:40:29;;;;;;;2.22;2.10;;;;;;;;;;5034196;28;20032;-25
2023/03/09 02:42:56;;;;;;;2.65;2.38;;;;;;;;;;5034140;28;20033;-24
2023/03/09 02:45:22;;;;;;;2.95;2.72;;;;;;;;;;5034069;28;20061;-25
2023/03/09 02:47:49;;;;;;;2.80;2.45;;;;;;;;;;5034078;28;20021;-25
2023/03/09 02:50:15;;;;;;;4.63;2.78;;;;;;;;;;5035942;28;20061;-24
2023/03/09 02:52:42;;;;;;;2.60;2.40;;;;;;;;;;5020545;28;20480;-24
2023/03/09 02:55:08;;;;;;;6.80;2.65;;;;;;;;;;5037868;28;20079;-24
2023/03/09 02:57:34;;;;;;;3.00;2.50;;;;;;;;;;5037772;28;20028;-25
2023/03/09 03:00:01;;;;;;;2.75;2.40;;;;;;;;;;5038072;28;20025;-24
2023/03/09 03:02:27;;;;;;;2.50;2.22;;;;;;;;;;5037809;28;20104;-25
2023/03/09 03:04:53;;;;;;;3.40;2.35;;;;;;;;;;5037466;28;20381;-25
2023/03/09 03:07:19;;;;;;;4.10;2.58;;;;;;;;;;5037686;28;20026;-25
2023/03/09 03:09:45;;;;;;;3.72;2.58;;;;;;;;;;5037482;28;20068;-25
2023/03/09 03:12:11;;;;;;;2.63;2.42;;;;;;;;;;5037632;28;20525;-25
2023/03/09 03:14:37;;;;;;;4.40;2.50;;;;;;;;;;5037448;28;20044;-25
2023/03/09 03:17:04;;;;;;;2.85;2.30;;;;;;;;;;5037735;28;20025;-25
2023/03/09 03:19:32;;;;;;;3.30;2.15;;;;;;;;;;5037471;28;20025;-25
2023/03/09 03:21:58;;;;;;;2.33;2.20;;;;;;;;;;5037696;28;20038;-25
2023/03/09 03:24:24;;;;;;;2.70;2.20;;;;;;;;;;5019893;28;20026;-25
2023/03/09 03:26:50;;;;;;;6.53;3.03;;;;;;;;;;5037334;28;20030;-25
2023/03/09 03:29:17;;;;;;;4.95;3.63;;;;;;;;;;5037218;28;20031;-25
2023/03/09 03:31:43;;;;;;;4.65;2.30;;;;;;;;;;5020294;28;20473;-25
2023/03/09 03:34:09;;;;;;;2.58;1.92;;;;;;;;;;5037119;28;20036;-25
2023/03/09 03:36:35;;;;;;;3.83;3.22;;;;;;;;;;5037425;28;20112;-25
2023/03/09 03:39:02;;;;;;;2.42;2.13;;;;;;;;;;5037345;28;20037;-25
2023/03/09 03:41:29;;;;;;;2.97;2.42;;;;;;;;;;5036979;28;20037;-25
2023/03/09 03:43:55;;;;;;;2.60;2.40;;;;;;;;;;5037005;28;20049;-24
2023/03/09 03:46:21;;;;;;;3.75;2.00;;;;;;;;;;5037205;28;20030;-24
2023/03/09 03:48:47;;;;;;;2.30;2.10;;;;;;;;;;5036911;28;20033;-25
2023/03/09 03:51:13;;;;;;;3.70;2.20;;;;;;;;;;5036773;28;20033;-25
2023/03/09 03:53:40;;;;;;;2.60;2.30;;;;;;;;;;5037028;28;20025;-24
2023/03/09 03:56:06;;;;;;;5.53;2.92;;;;;;;;;;5019319;28;20099;-25
2023/03/09 03:58:32;;;;;;;3.88;2.85;;;;;;;;;;5036738;28;20465;-25
2023/03/09 04:00:58;;;;;;;3.22;2.85;;;;;;;;;;5036128;28;20112;-25
2023/03/09 04:03:25;;;;;;;4.38;2.60;;;;;;;;;;5036270;28;20113;-24
2023/03/09 04:05:51;;;;;;;6.28;2.40;;;;;;;;;;5036379;28;20437;-25
2023/03/09 04:08:17;;;;;;;4.20;2.20;;;;;;;;;;5036887;28;20033;-25
2023/03/09 04:10:43;;;;;;;5.03;2.30;;;;;;;;;;5036483;28;20065;-25
2023/03/09 04:13:09;;;;;;;2.83;2.60;;;;;;;;;;5036342;28;20030;-25
2023/03/09 04:15:36;;;;;;;3.47;2.95;;;;;;;;;;5036420;28;20087;-25
2023/03/09 04:18:03;;;;;;;3.03;2.58;;;;;;;;;;5036348;28;20033;-25
2023/03/09 04:20:29;;;;;;;3.75;2.20;;;;;;;;;;5036584;28;20068;-25
2023/03/09 04:22:55;;;;;;;4.85;2.50;;;;;;;;;;5036251;28;20117;-25
2023/03/09 04:25:21;;;;;;;3.90;2.20;;;;;;;;;;5036447;28;20049;-25
2023/03/09 04:27:47;;;;;;;2.47;2.28;;;;;;;;;;5036185;28;20033;-24
2023/03/09 04:30:14;;;;;;;3.13;2.92;;;;;;;;;;5036359;28;20029;-24
2023/03/09 04:32:40;;;;;;;2.78;2.47;;;;;;;;;;5036124;28;20021;-25
2023/03/09 04:35:07;;;;;;;2.42;2.22;;;;;;;;;;5035880;28;20018;-25
2023/03/09 04:37:34;;;;;;;3.72;2.60;;;;;;;;;;5035938;28;20508;-25
2023/03/09 04:40:00;;;;;;;3.47;2.90;;;;;;;;;;5035914;28;20037;-25
2023/03/09 04:42:26;;;;;;;2.92;2.20;;;;;;;;;;5036123;28;20045;-24
2023/03/09 04:44:53;;;;;;;3.25;2.42;;;;;;;;;;5036303;28;20040;-25
2023/03/09 04:47:19;;;;;;;6.35;2.58;;;;;;;;;;5036006;28;20025;-25
2023/03/09 04:49:45;;;;;;;2.65;2.40;;;;;;;;;;5035859;28;20037;-24
2023/03/09 04:52:12;;;;;;;3.35;2.60;;;;;;;;;;5035556;28;20083;-25
2023/03/09 04:54:39;;;;;;;4.28;2.22;;;;;;;;;;5035479;28;20112;-25
2023/03/09 04:57:05;;;;;;;3.00;2.70;;;;;;;;;;5035775;28;20043;-24
2023/03/09 04:59:31;;;;;;;3.30;2.72;;;;;;;;;;5035439;28;20490;-25
2023/03/09 05:01:57;;;;;;;6.00;2.88;;;;;;;;;;5035633;28;20029;-24
2023/03/09 05:04:23;;;;;;;2.80;2.45;;;;;;;;;;5035009;28;20092;-25
2023/03/09 05:06:49;;;;;;;5.82;3.60;;;;;;;;;;5035521;28;20053;-25
2023/03/09 05:09:15;;;;;;;3.92;3.05;;;;;;;;;;5035366;28;20071;-25
2023/03/09 05:11:42;;;;;;;2.38;2.10;;;;;;;;;;5034994;28;20175;-25
2023/03/09 05:14:08;;;;;;;2.78;2.58;;;;;;;;;;5034479;28;20048;-25
2023/03/09 05:16:34;;;;;;;3.78;2.75;;;;;;;;;;5017590;28;20362;-25
2023/03/09 05:19:01;;;;;;;2.58;2.38;;;;;;;;;;5035056;28;20032;-25
2023/03/09 05:21:27;;;;;;;2.38;2.17;;;;;;;;;;5035066;28;20036;-25
2023/03/09 05:23:53;;;;;;;2.90;2.60;;;;;;;;;;5034716;28;20057;-25
2023/03/09 05:26:19;;;;;;;4.85;2.40;;;;;;;;;;5035154;28;20466;-25
2023/03/09 05:28:45;;;;;;;2.42;2.22;;;;;;;;;;5034619;28;20041;-25
2023/03/09 05:31:13;;;;;;;2.33;2.13;;;;;;;;;;5035003;28;20075;-25
2023/03/09 05:33:39;;;;;;;4.95;2.60;;;;;;;;;;5034903;28;20087;-25
2023/03/09 05:36:14;;;;;;;4.32;2.30;;;;;;;;;;5034551;28;20033;-25
2023/03/09 05:38:41;;;;;;;2.97;2.72;;;;;;;;;;5016812;28;20056;-25
2023/03/09 05:41:07;;;;;;;2.33;2.13;;;;;;;;;;5034310;28;20025;-25
2023/03/09 05:43:35;;;;;;;2.35;2.13;;;;;;;;;;5034090;28;20030;-24
2023/03/09 05:46:02;;;;;;;6.68;3.00;;;;;;;;;;5034014;28;20037;-25
2023/03/09 05:48:28;;;;;;;3.70;2.65;;;;;;;;;;5034216;28;20029;-24
2023/03/09 05:50:55;;;;;;;2.72;2.47;;;;;;;;;;5034126;28;20033;-25
2023/03/09 05:53:21;;;;;;;3.58;2.42;;;;;;;;;;5034022;28;20100;-24
2023/03/09 05:55:52;;;;;;;2.88;2.30;;;;;;;;;;5034029;28;20021;-24
2023/03/09 05:58:18;;;;;;;4.13;2.38;;;;;;;;;;5034291;28;20048;-25
2023/03/09 06:03:20;;;;;;;6.18;2.63;;;;;;;;;;5354030;22;20104;-25
2023/03/09 06:05:46;;;;;;;3.33;2.83;;;;;;;;;;5014490;28;20033;-25
2023/03/09 06:08:13;;;;;;;6.13;2.53;;;;;;;;;;5015049;28;20056;-25
2023/03/09 06:10:39;;;;;;;7.25;2.97;;;;;;;;;;5014211;28;20040;-25
2023/03/09 06:13:05;;;;;;;6.20;2.85;;;;;;;;;;5025807;28;20024;-24
2023/03/09 06:15:32;;;;;;;4.95;2.35;;;;;;;;;;5033836;28;20042;-24
2023/03/09 06:17:58;;;;;;;4.38;2.38;;;;;;;;;;5033946;28;20063;-24
2023/03/09 06:20:24;;;;;;;4.35;2.75;;;;;;;;;;5034133;28;20045;-24
2023/03/09 06:22:50;;;;;;;17.42;3.70;;;;;;;;;;5034525;28;20037;-24
2023/03/09 06:25:17;;;;;;;5.20;2.90;;;;;;;;;;5035798;28;20026;-25
2023/03/09 06:27:43;;;;;;;8.60;2.70;;;;;;;;;;5038093;28;20394;-25
2023/03/09 06:30:09;;;;;;;6.35;2.80;;;;;;;;;;5038147;28;20034;-25
2023/03/09 06:32:35;;;;;;;3.17;2.30;;;;;;;;;;5037758;28;20064;-25
2023/03/09 06:35:02;;;;;;;8.23;2.47;;;;;;;;;;5037882;28;20025;-25
2023/03/09 06:37:28;;;;;;;7.50;3.42;;;;;;;;;;5037646;28;20025;-25
2023/03/09 06:39:54;;;;;;;7.18;2.72;;;;;;;;;;5038407;28;20037;-25
2023/03/09 06:42:20;;;;;;;3.55;2.75;;;;;;;;;;5038231;28;20091;-25
2023/03/09 06:44:47;;;;;;;4.00;2.78;;;;;;;;;;5037658;28;20068;-25
2023/03/09 06:47:13;;;;;;;3.42;2.47;;;;;;;;;;5037775;28;20029;-25
2023/03/09 06:49:39;;;;;;;5.18;2.63;;;;;;;;;;5037603;28;20119;-25
2023/03/09 06:52:06;;;;;;;4.82;2.60;;;;;;;;;;5037150;28;20028;-25
2023/03/09 06:54:32;;;;;;;5.68;2.65;;;;;;;;;;5037651;28;20037;-25
2023/03/09 06:56:58;;;;;;;4.32;2.33;;;;;;;;;;5037440;28;20025;-25
2023/03/09 06:59:24;;;;;;;5.35;2.40;;;;;;;;;;5037433;28;20026;-25
2023/03/09 07:01:50;;;;;;;5.05;3.25;;;;;;;;;;5036949;28;20115;-25
2023/03/09 07:04:17;;;;;;;12.65;2.83;;;;;;;;;;5037051;28;20084;-25
2023/03/09 07:06:43;;;;;;;3.30;3.00;;;;;;;;;;5037091;28;20087;-25
2023/03/09 07:09:10;;;;;;;6.05;3.40;;;;;;;;;;5037339;28;20423;-25
2023/03/09 07:11:36;;;;;;;8.00;2.70;;;;;;;;;;5037207;28;20029;-25
2023/03/09 07:14:02;;;;;;;4.68;2.85;;;;;;;;;;5037074;28;20049;-25
2023/03/09 07:16:30;;;;;;;4.80;2.58;;;;;;;;;;5037482;28;20025;-25
2023/03/09 07:18:56;;;;;;;5.95;2.75;;;;;;;;;;5037068;28;20025;-25
2023/03/09 07:21:22;;;;;;;4.20;2.55;;;;;;;;;;5037124;28;20025;-25
2023/03/09 07:23:48;;;;;;;6.30;3.40;;;;;;;;;;5037333;28;20382;-25
2023/03/09 07:26:14;;;;;;;8.23;2.67;;;;;;;;;;5037233;28;20025;-25
2023/03/09 07:28:41;;;;;;;11.38;3.00;;;;;;;;;;5036923;28;20031;-25
2023/03/09 07:31:10;;;;;;;3.47;2.22;;;;;;;;;;5037224;28;20029;-25
2023/03/09 07:33:37;;;;;;;2.58;2.10;;;;;;;;;;5036723;28;20434;-25
2023/03/09 07:36:04;;;;;;;5.95;3.35;;;;;;;;;;5019143;28;20358;-24
2023/03/09 07:38:30;;;;;;;5.30;3.50;;;;;;;;;;5036998;28;20022;-26
2023/03/09 07:41:00;;;;;;;7.15;2.72;;;;;;;;;;5036791;28;20022;-26
2023/03/09 07:43:26;;;;;;;5.53;3.15;;;;;;;;;;5036435;28;20030;-25
2023/03/09 07:45:53;;;;;;;6.45;2.63;;;;;;;;;;5036793;28;20029;-26
2023/03/09 07:48:19;;;;;;;7.97;2.80;;;;;;;;;;5036430;28;20028;-26
2023/03/09 07:50:45;;;;;;;3.22;2.60;;;;;;;;;;5037298;28;20383;-26
2023/03/09 07:53:12;;;;;;;8.98;2.47;;;;;;;;;;5036882;28;20097;-26
2023/03/09 07:55:38;;;;;;;8.13;3.53;;;;;;;;;;5037208;28;20100;-26
2023/03/09 07:58:05;;;;;;;5.80;3.10;;;;;;;;;;5036693;28;20060;-26
2023/03/09 08:00:32;;;;;;;11.10;3.53;;;;;;;;;;5036535;28;20412;-24
2023/03/09 08:03:00;;;;;;;5.85;3.25;;;;;;;;;;5036569;28;20053;-24
2023/03/09 08:05:26;;;;;;;5.68;2.88;;;;;;;;;;5036673;28;20017;-25
2023/03/09 08:07:53;;;;;;;6.70;2.78;;;;;;;;;;5036928;28;20353;-24
2023/03/09 08:10:20;;;;;;;5.00;2.25;;;;;;;;;;5036554;28;20374;-24
2023/03/09 08:12:48;;;;;;;5.68;3.38;;;;;;;;;;5036112;28;20045;-25
2023/03/09 08:15:14;;;;;;;13.82;3.00;;;;;;;;;;5036493;28;20029;-27
2023/03/09 08:17:41;;;;;;;5.55;3.38;;;;;;;;;;5036198;28;20476;-25
2023/03/09 08:20:08;;;;;;;8.75;3.10;;;;;;;;;;5036274;28;20028;-24
2023/03/09 08:22:36;;;;;;;9.82;3.63;;;;;;;;;;5036194;28;20448;-26
2023/03/09 08:25:03;;;;;;;5.55;3.28;;;;;;;;;;5036579;28;20053;-24
2023/03/09 08:27:30;;;;;;;12.25;2.88;;;;;;;;;;5036009;28;20029;-24
2023/03/09 08:29:56;;;;;;;4.97;3.20;;;;;;;;;;5036129;28;20446;-24
2023/03/09 08:32:23;;;;;;;6.50;2.67;;;;;;;;;;5035754;28;20032;-25
2023/03/09 08:34:54;;;;;;;4.55;2.50;;;;;;;;;;5035868;28;20358;-25
2023/03/09 08:37:20;;;;;;;5.40;3.08;;;;;;;;;;5035964;28;20092;-24
2023/03/09 08:39:47;;;;;;;9.25;2.75;;;;;;;;;;5035890;28;20032;-23
2023/03/09 08:42:14;;;;;;;6.97;2.70;;;;;;;;;;5035735;28;20017;-25
2023/03/09 08:44:41;;;;;;;15.63;3.30;;;;;;;;;;5035505;28;20033;-24
2023/03/09 08:47:07;;;;;;;25.38;4.60;;;;;;;;;;5035161;28;20049;-24
2023/03/09 08:49:34;;;;;;;6.72;3.03;;;;;;;;;;5035487;28;20394;-25
2023/03/09 08:52:01;;;;;;;6.45;2.78;;;;;;;;;;5035754;28;20037;-24
2023/03/09 08:54:27;;;;;;;3.25;2.90;;;;;;;;;;5035437;28;20501;-24
2023/03/09 08:56:54;;;;;;;7.32;3.50;;;;;;;;;;5035362;28;20326;-25
2023/03/09 08:59:20;;;;;;;7.30;3.40;;;;;;;;;;5035177;28;20029;-24
2023/03/09 09:01:47;;;;;;;9.50;3.50;;;;;;;;;;5035151;28;20025;-24
2023/03/09 09:04:13;;;;;;;3.72;3.38;;;;;;;;;;5034836;28;20045;-24
2023/03/09 09:06:40;;;;;;;7.28;3.35;;;;;;;;;;5035469;28;20041;-24
2023/03/09 09:09:06;;;;;;;3.78;2.85;;;;;;;;;;5034840;28;20025;-25
2023/03/09 09:11:33;;;;;;;7.95;3.42;;;;;;;;;;5034913;28;20029;-24
2023/03/09 09:13:59;;;;;;;4.57;3.15;;;;;;;;;;5034652;28;20021;-24
2023/03/09 09:16:29;;;;;;;3.47;2.38;;;;;;;;;;5034802;28;20033;-25
2023/03/09 09:18:56;;;;;;;6.35;2.97;;;;;;;;;;5035043;28;20462;-25
2023/03/09 09:21:23;;;;;;;9.55;2.92;;;;;;;;;;5034966;28;20064;-24
2023/03/09 09:23:49;;;;;;;6.68;3.28;;;;;;;;;;5034796;28;20121;-26
2023/03/09 09:26:16;;;;;;;6.32;3.15;;;;;;;;;;5034618;28;20123;-25
2023/03/09 09:28:43;;;;;;;11.40;3.55;;;;;;;;;;5017151;28;20056;-24
2023/03/09 09:31:12;;;;;;;5.20;3.20;;;;;;;;;;5034452;28;20132;-24
2023/03/09 09:33:39;;;;;;;7.50;3.47;;;;;;;;;;5034463;28;20107;-25
2023/03/09 09:36:10;;;;;;;8.93;3.47;;;;;;;;;;5034624;28;20047;-25
2023/03/09 09:38:37;;;;;;;8.73;3.33;;;;;;;;;;5034916;28;20021;-27
2023/03/09 09:41:11;;;;;;;7.55;4.32;;;;;;;;;;5034592;28;20033;-24
2023/03/09 09:43:39;;;;;;;9.70;3.85;;;;;;;;;;5034475;28;20437;-24
2023/03/09 09:46:06;;;;;;;6.43;3.55;;;;;;;;;;5034965;28;20029;-24
2023/03/09 09:48:32;;;;;;;6.63;4.03;;;;;;;;;;5034306;28;20033;-24
2023/03/09 09:51:15;;;;;;;7.35;3.58;;;;;;;;;;5034214;28;20083;-25
2023/03/09 09:53:51;;;;;;;9.65;3.20;;;;;;;;;;5034149;28;20021;-24
2023/03/09 09:56:22;;;;;;;10.15;3.47;;;;;;;;;;5034530;28;20553;-24
2023/03/09 09:58:55;;;;;;;11.43;3.75;;;;;;;;;;5033571;28;20041;-25
2023/03/09 10:01:26;;;;;;;6.40;3.83;;;;;;;;;;5033908;28;20406;-24
2023/03/09 10:03:54;;;;;;;7.10;4.05;;;;;;;;;;5033947;28;20053;-24
2023/03/09 10:06:22;;;;;;;6.25;4.07;;;;;;;;;;5033968;28;20033;-24
2023/03/09 10:08:54;;;;;;;14.82;5.63;;;;;;;;;;5034418;28;20365;-24
2023/03/09 10:11:26;;;;;;;7.00;3.90;;;;;;;;;;5034005;28;20053;-24
2023/03/09 10:14:00;;;;;;;5.63;3.58;;;;;;;;;;5034162;28;20021;-25
2023/03/09 10:16:29;;;;;;;7.25;4.03;;;;;;;;;;5034283;28;20083;-24
2023/03/09 10:18:58;;;;;;;7.32;3.45;;;;;;;;;;5033990;28;20025;-24
2023/03/09 10:21:29;;;;;;;7.60;4.43;;;;;;;;;;5016731;28;20053;-24
2023/03/09 10:23:57;;;;;;;4.18;3.63;;;;;;;;;;5033869;28;20033;-24
2023/03/09 10:26:33;;;;;;;22.50;5.13;;;;;;;;;;5033752;28;20560;-24
2023/03/09 10:29:02;;;;;;;7.90;4.63;;;;;;;;;;5033783;28;20048;-24
2023/03/09 10:31:45;;;;;;;5.15;3.40;;;;;;;;;;5033970;28;20025;-25
2023/03/09 10:34:11;;;;;;;6.60;2.90;;;;;;;;;;5033925;28;20021;-25
2023/03/09 10:36:41;;;;;;;4.57;3.50;;;;;;;;;;5033982;28;20018;-24
2023/03/09 10:39:12;;;;;;;7.40;3.60;;;;;;;;;;5034051;28;20095;-25
2023/03/09 10:41:39;;;;;;;10.63;3.45;;;;;;;;;;5034425;28;20056;-24
2023/03/09 10:44:06;;;;;;;6.53;3.80;;;;;;;;;;5034212;28;20032;-25
2023/03/09 10:46:32;;;;;;;5.30;3.60;;;;;;;;;;5033814;28;20474;-25
2023/03/09 10:49:09;;;;;;;9.40;4.07;;;;;;;;;;5033764;28;20029;-24
2023/03/09 10:51:37;;;;;;;9.45;4.78;;;;;;;;;;5016148;28;20374;-24
2023/03/09 10:54:15;;;;;;;7.18;3.72;;;;;;;;;;5016205;28;20075;-24
2023/03/09 10:56:43;;;;;;;5.15;3.35;;;;;;;;;;5016383;28;20112;-27
2023/03/09 10:59:13;;;;;;;7.15;3.88;;;;;;;;;;5033778;28;20018;-26
2023/03/09 11:01:41;;;;;;;5.63;3.80;;;;;;;;;;5033637;28;20096;-24
2023/03/09 11:04:28;;;;;;;9.90;3.70;;;;;;;;;;5033211;28;20058;-24
2023/03/09 11:06:57;;;;;;;11.27;3.28;;;;;;;;;;5034218;28;20035;-26
2023/03/09 11:09:35;;;;;;;7.20;3.60;;;;;;;;;;5033490;28;20056;-25
2023/03/09 11:12:09;;;;;;;14.50;3.17;;;;;;;;;;5036476;28;20129;-24
2023/03/09 11:14:41;;;;;;;7.38;2.83;;;;;;;;;;5037528;28;20048;-24
2023/03/09 11:17:24;;;;;;;7.90;4.45;;;;;;;;;;5037646;28;20036;-24
2023/03/09 11:19:50;;;;;;;9.70;3.63;;;;;;;;;;5037416;28;20033;-24
2023/03/09 11:22:17;;;;;;;8.75;3.60;;;;;;;;;;5037150;28;20021;-24
2023/03/09 11:24:45;;;;;;;8.13;3.17;;;;;;;;;;5037076;28;20029;-26
2023/03/09 11:27:26;;;;;;;3.70;2.58;;;;;;;;;;5037293;28;20335;-25
2023/03/09 11:30:11;;;;;;;11.32;4.10;;;;;;;;;;5037262;28;20029;-25
2023/03/09 11:32:38;;;;;;;5.00;3.22;;;;;;;;;;5037318;28;20124;-24
2023/03/09 11:35:04;;;;;;;7.32;3.10;;;;;;;;;;5019673;28;20105;-24
2023/03/09 11:37:50;;;;;;;14.20;4.63;;;;;;;;;;5037122;28;20029;-25
2023/03/09 11:40:18;;;;;;;4.43;3.20;;;;;;;;;;5037424;28;20025;-25
2023/03/09 11:42:50;;;;;;;10.20;3.45;;;;;;;;;;5036551;28;20017;-25
2023/03/09 11:45:18;;;;;;;5.75;2.80;;;;;;;;;;5036853;28;20335;-25
2023/03/09 11:48:11;;;;;;;13.82;4.18;;;;;;;;;;5036792;28;20096;-25
2023/03/09 11:50:44;;;;;;;8.25;3.53;;;;;;;;;;5032292;28;20049;-25
2023/03/09 11:53:18;;;;;;;8.30;3.50;;;;;;;;;;5019869;28;20045;-25
2023/03/09 11:55:46;;;;;;;6.07;3.58;;;;;;;;;;5036888;28;20026;-25
2023/03/09 11:58:15;;;;;;;4.65;3.10;;;;;;;;;;5036859;28;20049;-24
2023/03/09 12:00:44;;;;;;;6.88;3.40;;;;;;;;;;5036525;28;20033;-24
2023/03/09 12:03:14;;;;;;;9.95;2.90;;;;;;;;;;5036372;28;20448;-24
2023/03/09 12:05:43;;;;;;;5.78;3.20;;;;;;;;;;5036800;28;20033;-25
2023/03/09 12:08:12;;;;;;;11.32;3.28;;;;;;;;;;5036602;28;20029;-24
2023/03/09 12:10:42;;;;;;;7.93;3.90;;;;;;;;;;5036563;28;20350;-27
2023/03/09 12:13:41;;;;;;;4.13;3.03;;;;;;;;;;5036685;28;20104;-25
2023/03/09 12:16:19;;;;;;;5.18;4.68;;;;;;;;;;4982708;28;20030;-25
2023/03/09 12:19:01;;;;;;;7.65;3.58;;;;;;;;;;5036396;28;20025;-25
2023/03/09 12:21:32;;;;;;;6.50;3.15;;;;;;;;;;5036063;28;20064;-24
2023/03/09 12:24:02;;;;;;;4.78;2.78;;;;;;;;;;5035224;28;20038;-25
2023/03/09 12:26:29;;;;;;;6.20;3.47;;;;;;;;;;5036023;28;20079;-25
2023/03/09 12:29:13;;;;;;;7.20;3.90;;;;;;;;;;5035941;28;20082;-24
2023/03/09 12:31:40;;;;;;;6.63;3.40;;;;;;;;;;5036081;28;20062;-24
2023/03/09 12:34:24;;;;;;;6.00;4.22;;;;;;;;;;5035951;28;20021;-24
2023/03/09 12:36:51;;;;;;;9.05;4.20;;;;;;;;;;5035937;28;20029;-25
2023/03/09 12:39:26;;;;;;;11.52;4.20;;;;;;;;;;5036498;28;20515;-24
2023/03/09 12:41:56;;;;;;;4.25;3.85;;;;;;;;;;5036460;28;20036;-24
2023/03/09 12:44:40;;;;;;;7.53;4.07;;;;;;;;;;5035796;28;20104;-24
2023/03/09 12:47:21;;;;;;;5.20;3.70;;;;;;;;;;5036090;28;20094;-24
2023/03/09 12:49:52;;;;;;;4.95;2.80;;;;;;;;;;5035510;28;20037;-25
2023/03/09 12:52:39;;;;;;;19.52;4.10;;;;;;;;;;5036062;28;20092;-24
2023/03/09 12:55:14;;;;;;;8.05;3.47;;;;;;;;;;5035782;28;20030;-24
2023/03/09 12:57:40;;;;;;;9.60;4.53;;;;;;;;;;5035630;28;20460;-24
2023/03/09 13:00:19;;;;;;;7.82;3.83;;;;;;;;;;5017959;28;20095;-24
2023/03/09 13:02:57;;;;;;;6.82;3.05;;;;;;;;;;5035121;28;20053;-24
2023/03/09 13:05:40;;;;;;;13.75;3.38;;;;;;;;;;5035362;28;20029;-24
2023/03/09 13:08:18;;;;;;;6.38;3.35;;;;;;;;;;5035347;28;20033;-24
2023/03/09 13:10:44;;;;;;;12.38;3.75;;;;;;;;;;5035484;28;20025;-24
2023/03/09 13:13:29;;;;;;;7.95;3.78;;;;;;;;;;5035093;28;20049;-24
2023/03/09 13:16:13;;;;;;;8.10;3.33;;;;;;;;;;5035073;28;20025;-24
2023/03/09 13:18:40;;;;;;;8.52;3.35;;;;;;;;;;5035027;28;20041;-24
2023/03/09 13:21:24;;;;;;;10.98;3.45;;;;;;;;;;5035523;28;20025;-24
2023/03/09 13:23:51;;;;;;;7.90;3.17;;;;;;;;;;5034906;28;20025;-24
2023/03/09 13:26:18;;;;;;;6.32;3.25;;;;;;;;;;5034892;28;20029;-24
2023/03/09 13:28:47;;;;;;;5.93;3.10;;;;;;;;;;5018443;28;20037;-24
2023/03/09 13:31:31;;;;;;;6.72;2.95;;;;;;;;;;5034775;28;20059;-26
2023/03/09 13:33:59;;;;;;;8.98;3.30;;;;;;;;;;5034447;28;20110;-24
2023/03/09 13:36:26;;;;;;;11.00;3.30;;;;;;;;;;5034781;28;20026;-24
2023/03/09 13:39:05;;;;;;;14.13;3.75;;;;;;;;;;5034934;28;20030;-24
2023/03/09 13:41:31;;;;;;;8.10;4.10;;;;;;;;;;5034624;28;20029;-26
2023/03/09 13:43:58;;;;;;;9.68;3.58;;;;;;;;;;5034542;28;20040;-24
2023/03/09 13:46:34;;;;;;;6.00;3.22;;;;;;;;;;5034514;28;20025;-25
2023/03/09 13:49:08;;;;;;;11.15;4.70;;;;;;;;;;5034434;28;20108;-24
2023/03/09 13:52:00;;;;;;;15.02;3.95;;;;;;;;;;5034512;28;20025;-24
2023/03/09 13:54:47;;;;;;;16.25;4.63;;;;;;;;;;5030278;28;20339;-24
2023/03/09 13:57:18;;;;;;;17.23;4.00;;;;;;;;;;5034667;28;20026;-24
2023/03/09 13:59:54;;;;;;;11.10;4.30;;;;;;;;;;5034374;28;20409;-24
2023/03/09 14:02:20;;;;;;;13.60;3.92;;;;;;;;;;5033954;28;20026;-24
2023/03/09 14:04:51;;;;;;;13.38;4.38;;;;;;;;;;5034563;28;20056;-24
2023/03/09 14:07:46;;;;;;;9.30;3.50;;;;;;;;;;5034562;28;20096;-24
2023/03/09 14:10:31;;;;;;;15.38;5.13;;;;;;;;;;5013300;28;20040;-24
2023/03/09 14:12:59;;;;;;;13.43;4.28;;;;;;;;;;5034285;28;20064;-24
2023/03/09 14:15:26;;;;;;;10.90;4.95;;;;;;;;;;5034146;28;20034;-24
2023/03/09 14:17:53;;;;;;;8.45;3.95;;;;;;;;;;5034140;28;20037;-24
2023/03/09 14:20:19;;;;;;;10.48;3.92;;;;;;;;;;5034244;28;20029;-24
2023/03/09 14:22:45;;;;;;;5.57;3.15;;;;;;;;;;5034021;28;20066;-24
2023/03/09 14:25:41;;;;;;;11.73;5.20;;;;;;;;;;5034335;28;20087;-24
2023/03/09 14:28:27;;;;;;;10.93;4.07;;;;;;;;;;4996310;28;20040;-24
2023/03/09 14:30:54;;;;;;;5.28;2.72;;;;;;;;;;5034227;28;20343;-24
2023/03/09 14:33:24;;;;;;;12.05;3.67;;;;;;;;;;5034212;28;20095;-24
2023/03/09 14:35:51;;;;;;;8.93;3.83;;;;;;;;;;5034081;28;20129;-24
2023/03/09 14:38:18;;;;;;;9.05;3.00;;;;;;;;;;5034561;28;20018;-24
2023/03/09 14:40:44;;;;;;;8.75;3.33;;;;;;;;;;5033958;28;20021;-24
2023/03/09 14:43:23;;;;;;;7.95;3.38;;;;;;;;;;5034202;28;20401;-24
2023/03/09 14:45:49;;;;;;;7.82;3.30;;;;;;;;;;5035500;28;20037;-24
2023/03/09 14:48:15;;;;;;;3.70;3.13;;;;;;;;;;5020475;28;20044;-24
2023/03/09 14:50:42;;;;;;;13.88;3.35;;;;;;;;;;5038078;28;20386;-24
2023/03/09 14:53:14;;;;;;;7.32;3.20;;;;;;;;;;5037734;28;20101;-24
2023/03/09 14:55:40;;;;;;;7.35;3.20;;;;;;;;;;5037588;28;20021;-24